New Harbour, Canada
Current Conditions -  °F | °C
As of 6:21 AM on Wednesday 28 Jan 2015 (Local Time) from CYYT Reporting Station
Rain Showers Rain Showers  
Wind Chill: 30°   Ceiling: 400
Heat Index: 37°   Visibility: 1.5mi
Dew Point: 37°   Wind: 12mph
Humidity: 100%   Direction: 190°S
Pressure: 29.68"   Gusts: NA
Location:  47.58°N, 53.55°W
Report Text: CYYT 280921Z 19010KT 1 1/2SM -SHRA BR OVC004 03/03 A2968 RMK FG2SF6 VIS LWR SE-SW SLP058
Loading
Personal Weather Stations






























Interactive Weather Map New forecast layout! Learn more

10-Day Weather Forecast

Advertisements
Track Severe Weather on mobile